Time;durP1;ratioP1;P1;durP2;ratioP2;P2;SDS_P1;SDS_P2;PMS_P1;PMS_P2;Temp;Humidity;BMP_temperature;BMP_pressure;BME280_temperature;BME280_humidity;BME280_pressure;Samples;Min_cycle;Max_cycle;Signal;HPM_P1;HPM_P2
2021/01/14 00:01:07;;;;;;;6.20;2.97;;;;;;;;;;5033055;28;20203;-55
2021/01/14 00:03:33;;;;;;;6.10;2.47;;;;;;;;;;5032991;28;20198;-55
2021/01/14 00:06:00;;;;;;;4.80;2.30;;;;;;;;;;5032941;28;20222;-55
2021/01/14 00:08:27;;;;;;;2.33;2.13;;;;;;;;;;5032873;28;20214;-56
2021/01/14 00:10:55;;;;;;;2.25;1.98;;;;;;;;;;5032692;28;20642;-55
2021/01/14 00:13:22;;;;;;;2.88;1.60;;;;;;;;;;5032975;28;20207;-55
2021/01/14 00:15:49;;;;;;;6.05;2.35;;;;;;;;;;5032809;28;20233;-55
2021/01/14 00:18:16;;;;;;;4.43;2.17;;;;;;;;;;5032871;28;20201;-55
2021/01/14 00:20:42;;;;;;;4.65;2.50;;;;;;;;;;5032869;28;20207;-56
2021/01/14 00:23:09;;;;;;;7.90;2.15;;;;;;;;;;5034348;28;20256;-56
2021/01/14 00:28:05;;;;;;;3.65;2.47;;;;;;;;;;5062879;22;20253;-61
2021/01/14 00:30:32;;;;;;;4.82;1.88;;;;;;;;;;5037911;28;20213;-61
2021/01/14 00:32:59;;;;;;;2.28;1.92;;;;;;;;;;5037240;28;20213;-60
2021/01/14 00:35:27;;;;;;;2.28;1.95;;;;;;;;;;5037247;28;20202;-60
2021/01/14 00:37:53;;;;;;;2.85;1.90;;;;;;;;;;5036943;28;20226;-60
2021/01/14 00:40:21;;;;;;;7.05;2.08;;;;;;;;;;5037429;28;20572;-60
2021/01/14 00:42:53;;;;;;;2.33;1.75;;;;;;;;;;5036897;28;20202;-60
2021/01/14 00:45:21;;;;;;;3.67;2.20;;;;;;;;;;5036851;28;20273;-60
2021/01/14 00:47:48;;;;;;;4.22;2.20;;;;;;;;;;5037716;28;20230;-61
2021/01/14 00:50:15;;;;;;;2.13;1.80;;;;;;;;;;5037317;28;20209;-60
2021/01/14 00:52:42;;;;;;;3.47;1.60;;;;;;;;;;5036656;28;20229;-60
2021/01/14 00:55:09;;;;;;;2.85;1.65;;;;;;;;;;5036749;28;20205;-60
2021/01/14 00:57:36;;;;;;;3.03;1.90;;;;;;;;;;5041132;28;20218;-60
2021/01/14 01:00:04;;;;;;;2.38;1.90;;;;;;;;;;5037361;28;20249;-60
2021/01/14 01:02:32;;;;;;;2.45;1.90;;;;;;;;;;5036339;28;20214;-60
2021/01/14 01:04:58;;;;;;;4.00;1.77;;;;;;;;;;5036700;28;20202;-59
2021/01/14 01:07:25;;;;;;;2.25;1.67;;;;;;;;;;5036620;28;20573;-60
2021/01/14 01:09:52;;;;;;;2.17;1.60;;;;;;;;;;5036708;28;20206;-61
2021/01/14 01:12:19;;;;;;;3.00;1.90;;;;;;;;;;5036268;28;20598;-60
2021/01/14 01:14:45;;;;;;;6.38;2.30;;;;;;;;;;5036465;28;20260;-60
2021/01/14 01:17:12;;;;;;;4.38;2.22;;;;;;;;;;5036787;28;20222;-60
2021/01/14 01:19:40;;;;;;;2.05;1.77;;;;;;;;;;5037679;28;20203;-59
2021/01/14 01:22:06;;;;;;;3.20;2.30;;;;;;;;;;5040115;28;20198;-60
2021/01/14 01:24:33;;;;;;;2.50;1.65;;;;;;;;;;5039115;28;20206;-60
2021/01/14 01:27:00;;;;;;;2.55;1.90;;;;;;;;;;5038125;28;20238;-60
2021/01/14 01:29:27;;;;;;;5.78;2.45;;;;;;;;;;5039241;28;20272;-58
2021/01/14 01:31:54;;;;;;;3.08;1.70;;;;;;;;;;5039376;28;20283;-59
2021/01/14 01:34:20;;;;;;;5.80;2.28;;;;;;;;;;5036757;28;20572;-60
2021/01/14 01:36:51;;;;;;;11.23;4.15;;;;;;;;;;5036650;28;20225;-60
2021/01/14 01:39:18;;;;;;;6.53;2.60;;;;;;;;;;5036573;28;20266;-60
2021/01/14 01:41:46;;;;;;;2.40;2.13;;;;;;;;;;5036237;28;20210;-60
2021/01/14 01:44:13;;;;;;;2.30;2.10;;;;;;;;;;5036071;28;20290;-60
2021/01/14 01:46:39;;;;;;;7.20;2.85;;;;;;;;;;5035544;28;20718;-60
2021/01/14 01:49:07;;;;;;;4.18;2.20;;;;;;;;;;5036608;28;20225;-60
2021/01/14 01:51:36;;;;;;;2.40;2.20;;;;;;;;;;5035768;28;20276;-61
2021/01/14 01:54:04;;;;;;;1.98;1.88;;;;;;;;;;5035366;28;20205;-60
2021/01/14 01:56:31;;;;;;;3.45;1.88;;;;;;;;;;5036496;28;20562;-61
2021/01/14 01:58:58;;;;;;;2.67;2.20;;;;;;;;;;5036320;28;20206;-60
2021/01/14 02:01:25;;;;;;;4.03;2.00;;;;;;;;;;5036172;28;20202;-59
2021/01/14 02:03:52;;;;;;;2.47;1.77;;;;;;;;;;5036053;28;20206;-60
2021/01/14 02:06:19;;;;;;;3.65;2.65;;;;;;;;;;5036531;28;20233;-60
2021/01/14 02:08:49;;;;;;;6.40;2.08;;;;;;;;;;5035677;28;20709;-59
2021/01/14 02:11:20;;;;;;;3.45;2.10;;;;;;;;;;5035962;28;20212;-59
2021/01/14 02:13:48;;;;;;;2.10;1.80;;;;;;;;;;5035917;28;20194;-60
2021/01/14 02:16:15;;;;;;;3.80;2.10;;;;;;;;;;5035904;28;20231;-60
2021/01/14 02:18:43;;;;;;;4.82;2.20;;;;;;;;;;5035600;28;20206;-59
2021/01/14 02:21:11;;;;;;;6.18;2.20;;;;;;;;;;5035161;28;20675;-60
2021/01/14 02:23:40;;;;;;;5.80;2.40;;;;;;;;;;5034946;28;20682;-61
2021/01/14 02:26:12;;;;;;;3.42;2.25;;;;;;;;;;5034735;28;20710;-60
2021/01/14 02:28:40;;;;;;;5.88;2.10;;;;;;;;;;5036080;28;20284;-60
2021/01/14 02:31:07;;;;;;;3.50;2.15;;;;;;;;;;5037976;28;20202;-61
2021/01/14 02:33:33;;;;;;;6.25;2.45;;;;;;;;;;5039139;28;20228;-61
2021/01/14 02:36:00;;;;;;;2.75;1.85;;;;;;;;;;5041262;28;20276;-59
2021/01/14 02:38:27;;;;;;;4.90;2.50;;;;;;;;;;5039050;28;20221;-60
2021/01/14 02:40:54;;;;;;;4.65;2.03;;;;;;;;;;5038172;28;20289;-60
2021/01/14 02:43:21;;;;;;;5.07;2.03;;;;;;;;;;5037646;28;20214;-60
2021/01/14 02:45:48;;;;;;;5.85;2.78;;;;;;;;;;5036179;28;20240;-60
2021/01/14 02:48:18;;;;;;;3.58;2.10;;;;;;;;;;5036077;28;20218;-60
2021/01/14 02:50:46;;;;;;;3.90;2.15;;;;;;;;;;5037735;28;20198;-60
2021/01/14 02:53:13;;;;;;;4.68;2.25;;;;;;;;;;5035547;28;20556;-60
2021/01/14 02:55:40;;;;;;;3.22;2.20;;;;;;;;;;5035831;28;20580;-59
2021/01/14 02:58:07;;;;;;;3.55;2.28;;;;;;;;;;5035800;28;20225;-60
2021/01/14 03:00:35;;;;;;;3.83;2.10;;;;;;;;;;5035454;28;20665;-60
2021/01/14 03:03:01;;;;;;;4.10;1.98;;;;;;;;;;5034756;28;20356;-61
2021/01/14 03:05:28;;;;;;;5.20;2.10;;;;;;;;;;5034943;28;20259;-60
2021/01/14 03:07:55;;;;;;;5.55;2.15;;;;;;;;;;5034330;28;20238;-59
2021/01/14 03:10:22;;;;;;;4.38;3.05;;;;;;;;;;5034470;28;20678;-59
2021/01/14 03:12:48;;;;;;;3.53;2.60;;;;;;;;;;5034472;28;20210;-60
2021/01/14 03:15:15;;;;;;;2.70;2.13;;;;;;;;;;5034584;28;20198;-60
2021/01/14 03:17:43;;;;;;;3.40;2.08;;;;;;;;;;5035709;28;20230;-61
2021/01/14 03:20:10;;;;;;;2.80;2.17;;;;;;;;;;5038992;28;20206;-59
2021/01/14 03:22:40;;;;;;;2.53;2.25;;;;;;;;;;5037281;28;20257;-58
2021/01/14 03:25:08;;;;;;;2.75;1.98;;;;;;;;;;5036135;28;20229;-60
2021/01/14 03:27:38;;;;;;;7.60;2.55;;;;;;;;;;5036351;28;20234;-60
2021/01/14 03:30:06;;;;;;;6.63;2.13;;;;;;;;;;5036158;28;20213;-59
2021/01/14 03:32:33;;;;;;;5.60;2.30;;;;;;;;;;5035306;28;20198;-60
2021/01/14 03:35:01;;;;;;;5.10;2.83;;;;;;;;;;5035698;28;20205;-60
2021/01/14 03:37:27;;;;;;;2.50;1.80;;;;;;;;;;5034784;28;20225;-60
2021/01/14 03:39:54;;;;;;;4.88;2.20;;;;;;;;;;5033837;28;20203;-60
2021/01/14 03:42:21;;;;;;;3.78;1.88;;;;;;;;;;5034033;28;20214;-60
2021/01/14 03:44:48;;;;;;;2.38;2.15;;;;;;;;;;5034363;28;20198;-60
2021/01/14 03:47:15;;;;;;;4.35;1.80;;;;;;;;;;5034120;28;20713;-59
2021/01/14 03:49:42;;;;;;;3.85;2.20;;;;;;;;;;5034650;28;20304;-59
2021/01/14 03:52:11;;;;;;;5.55;2.45;;;;;;;;;;5033241;28;20658;-60
2021/01/14 03:54:37;;;;;;;1.90;1.70;;;;;;;;;;5034367;28;20612;-60
2021/01/14 03:57:04;;;;;;;3.80;2.70;;;;;;;;;;5032885;28;20223;-60
2021/01/14 03:59:31;;;;;;;2.83;1.73;;;;;;;;;;5033525;28;20195;-58
2021/01/14 04:02:06;;;;;;;4.38;2.10;;;;;;;;;;5033254;28;20202;-59
2021/01/14 04:07:34;;;;;;;2.83;2.63;;;;;;;;;;5109223;27;862797;-61
2021/01/14 04:10:01;;;;;;;6.30;2.53;;;;;;;;;;5131911;28;20203;-59
2021/01/14 04:12:28;;;;;;;5.10;2.80;;;;;;;;;;5131540;28;20195;-59
2021/01/14 04:14:55;;;;;;;4.28;2.90;;;;;;;;;;5131497;28;20202;-60
2021/01/14 04:17:22;;;;;;;3.88;2.90;;;;;;;;;;5131451;27;20296;-59
2021/01/14 04:19:49;;;;;;;5.40;2.70;;;;;;;;;;5132969;28;20199;-60
2021/01/14 04:22:15;;;;;;;3.42;2.78;;;;;;;;;;5131660;28;20659;-60
2021/01/14 04:24:43;;;;;;;3.92;3.15;;;;;;;;;;5131546;28;20199;-61
2021/01/14 04:27:10;;;;;;;4.13;2.58;;;;;;;;;;5131249;27;20239;-60
2021/01/14 04:29:37;;;;;;;4.68;2.75;;;;;;;;;;5131388;28;20203;-61
2021/01/14 04:32:04;;;;;;;3.28;2.50;;;;;;;;;;5131711;28;20281;-60
2021/01/14 04:34:30;;;;;;;2.95;2.55;;;;;;;;;;5132643;28;20199;-60
2021/01/14 04:36:58;;;;;;;3.33;2.65;;;;;;;;;;5131868;27;20230;-60
2021/01/14 04:39:24;;;;;;;4.55;2.90;;;;;;;;;;5132134;28;20662;-60
2021/01/14 04:41:56;;;;;;;6.03;3.00;;;;;;;;;;5132312;28;20218;-60
2021/01/14 04:44:23;;;;;;;7.00;3.30;;;;;;;;;;5133081;28;20267;-61
2021/01/14 04:46:50;;;;;;;3.42;2.90;;;;;;;;;;5132469;27;20234;-60
2021/01/14 04:49:18;;;;;;;6.97;3.50;;;;;;;;;;5132028;28;20203;-60
2021/01/14 04:51:46;;;;;;;5.00;3.70;;;;;;;;;;5131651;28;20290;-61
2021/01/14 04:54:14;;;;;;;4.25;3.00;;;;;;;;;;5131569;28;20690;-59
2021/01/14 04:56:41;;;;;;;9.70;3.70;;;;;;;;;;5131766;27;20310;-59
2021/01/14 04:59:09;;;;;;;2.90;2.40;;;;;;;;;;5132603;28;20196;-60
2021/01/14 05:01:36;;;;;;;6.85;3.10;;;;;;;;;;5130831;28;20199;-60
2021/01/14 05:04:06;;;;;;;9.32;3.28;;;;;;;;;;5131423;28;20248;-61
2021/01/14 05:06:37;;;;;;;4.53;3.53;;;;;;;;;;5130376;27;20223;-61
2021/01/14 05:09:05;;;;;;;3.38;3.05;;;;;;;;;;5130748;28;20203;-59
2021/01/14 05:11:38;;;;;;;6.75;3.30;;;;;;;;;;5130343;28;20670;-59
2021/01/14 05:14:04;;;;;;;5.38;3.40;;;;;;;;;;5130785;28;20187;-61
2021/01/14 05:16:32;;;;;;;5.50;3.70;;;;;;;;;;5130383;27;20219;-60
2021/01/14 05:18:59;;;;;;;5.45;3.15;;;;;;;;;;5119658;28;20199;-60
2021/01/14 05:21:27;;;;;;;5.65;3.25;;;;;;;;;;5125743;28;20217;-61
2021/01/14 05:24:07;;;;;;;5.55;3.60;;;;;;;;;;5120978;28;20204;-60
2021/01/14 05:26:34;;;;;;;4.78;3.10;;;;;;;;;;5119951;28;20223;-61
2021/01/14 05:29:11;;;;;;;5.30;3.70;;;;;;;;;;5116738;28;20195;-60
2021/01/14 05:31:38;;;;;;;4.38;3.35;;;;;;;;;;5116923;28;20241;-60
2021/01/14 05:34:05;;;;;;;8.93;4.15;;;;;;;;;;5117073;28;20211;-61
2021/01/14 05:36:50;;;;;;;4.97;3.30;;;;;;;;;;5116569;28;20269;-61
2021/01/14 05:39:18;;;;;;;5.50;3.65;;;;;;;;;;5116280;28;20207;-60
2021/01/14 05:41:45;;;;;;;7.57;3.88;;;;;;;;;;5116801;28;20281;-61
2021/01/14 05:44:12;;;;;;;8.43;3.80;;;;;;;;;;5116579;28;20553;-59
2021/01/14 05:46:39;;;;;;;7.20;4.35;;;;;;;;;;5115965;28;20644;-59
2021/01/14 05:49:09;;;;;;;5.35;3.70;;;;;;;;;;5116572;28;20207;-60
2021/01/14 05:51:36;;;;;;;6.25;4.20;;;;;;;;;;5116458;28;20207;-59
2021/01/14 05:54:05;;;;;;;8.18;3.67;;;;;;;;;;5116532;28;20211;-60
2021/01/14 05:56:38;;;;;;;6.78;4.15;;;;;;;;;;5115759;28;20223;-60
2021/01/14 05:59:06;;;;;;;7.07;4.40;;;;;;;;;;5116472;28;20237;-60
2021/01/14 06:01:33;;;;;;;4.10;3.70;;;;;;;;;;5116117;28;20272;-60
2021/01/14 06:04:20;;;;;;;10.00;5.35;;;;;;;;;;5116265;28;20200;-60
2021/01/14 06:06:47;;;;;;;6.75;3.92;;;;;;;;;;5116500;28;20223;-60
2021/01/14 06:09:14;;;;;;;5.70;4.38;;;;;;;;;;5115875;28;20577;-61
2021/01/14 06:11:43;;;;;;;8.15;5.00;;;;;;;;;;5117122;28;20221;-60
2021/01/14 06:14:24;;;;;;;7.88;4.57;;;;;;;;;;5120977;28;20200;-61
2021/01/14 06:16:52;;;;;;;5.65;4.60;;;;;;;;;;5115691;28;20242;-60
2021/01/14 06:19:19;;;;;;;9.20;5.60;;;;;;;;;;5115585;28;20200;-61
2021/01/14 06:21:47;;;;;;;6.13;5.15;;;;;;;;;;5115318;28;20667;-61
2021/01/14 06:24:23;;;;;;;6.95;5.00;;;;;;;;;;5115400;28;20686;-61
2021/01/14 06:26:49;;;;;;;9.35;5.38;;;;;;;;;;5116872;28;20223;-61
2021/01/14 06:29:17;;;;;;;9.70;5.43;;;;;;;;;;5114611;28;20200;-59
2021/01/14 06:31:44;;;;;;;7.80;5.80;;;;;;;;;;5123529;28;20204;-58
2021/01/14 06:34:12;;;;;;;11.48;5.90;;;;;;;;;;5130255;28;20199;-60
2021/01/14 06:36:40;;;;;;;8.80;5.38;;;;;;;;;;5116280;28;20223;-61
2021/01/14 06:39:11;;;;;;;8.98;5.88;;;;;;;;;;5118343;28;20203;-61
2021/01/14 06:41:39;;;;;;;6.70;5.43;;;;;;;;;;5115565;28;20667;-61
2021/01/14 06:44:07;;;;;;;8.50;5.18;;;;;;;;;;5114884;28;20200;-61
2021/01/14 06:46:35;;;;;;;7.35;6.20;;;;;;;;;;5115283;28;20219;-59
2021/01/14 06:49:08;;;;;;;7.68;5.80;;;;;;;;;;5116115;28;20307;-59
2021/01/14 06:51:52;;;;;;;12.82;6.15;;;;;;;;;;5115395;28;20659;-61
2021/01/14 06:54:20;;;;;;;6.22;5.55;;;;;;;;;;5114602;28;20271;-60
2021/01/14 06:56:47;;;;;;;10.10;7.00;;;;;;;;;;5114882;28;20284;-60
2021/01/14 06:59:16;;;;;;;8.13;5.82;;;;;;;;;;5114509;28;20246;-60
2021/01/14 07:01:46;;;;;;;10.95;7.60;;;;;;;;;;5114943;28;20224;-60
2021/01/14 07:04:21;;;;;;;9.77;6.10;;;;;;;;;;5115043;28;20286;-61
2021/01/14 07:06:57;;;;;;;10.50;7.20;;;;;;;;;;5114283;28;20602;-61
2021/01/14 07:09:27;;;;;;;11.65;7.00;;;;;;;;;;5114876;28;20188;-61
2021/01/14 07:11:55;;;;;;;9.70;7.07;;;;;;;;;;5115000;28;20199;-60
2021/01/14 07:14:23;;;;;;;10.68;7.95;;;;;;;;;;5114783;28;20206;-60
2021/01/14 07:16:58;;;;;;;9.25;7.45;;;;;;;;;;5115889;28;20216;-61
2021/01/14 07:19:25;;;;;;;11.20;7.65;;;;;;;;;;5115642;28;20183;-61
2021/01/14 07:21:54;;;;;;;10.70;8.07;;;;;;;;;;5116121;28;20196;-60
2021/01/14 07:24:23;;;;;;;16.55;7.22;;;;;;;;;;5115676;28;20207;-60
2021/01/14 07:26:51;;;;;;;8.27;6.93;;;;;;;;;;5117100;28;20635;-60
2021/01/14 07:29:19;;;;;;;11.25;7.68;;;;;;;;;;5115418;28;20200;-60
2021/01/14 07:31:49;;;;;;;13.07;7.18;;;;;;;;;;5115051;28;20196;-60
2021/01/14 07:34:43;;;;;;;16.15;10.20;;;;;;;;;;5114112;28;20439;-61
2021/01/14 07:37:12;;;;;;;11.45;9.00;;;;;;;;;;5078842;28;20215;-60
2021/01/14 07:39:45;;;;;;;12.15;8.63;;;;;;;;;;5115307;28;20204;-60
2021/01/14 07:42:12;;;;;;;11.20;8.25;;;;;;;;;;5113553;28;20199;-60
2021/01/14 07:44:39;;;;;;;11.80;8.50;;;;;;;;;;5113489;28;20960;-60
2021/01/14 07:47:06;;;;;;;14.63;9.07;;;;;;;;;;5114209;28;20223;-62
2021/01/14 07:49:35;;;;;;;13.05;8.93;;;;;;;;;;5114210;28;20253;-61
2021/01/14 07:52:02;;;;;;;17.67;9.73;;;;;;;;;;5113965;28;20203;-61
2021/01/14 07:54:30;;;;;;;12.40;8.52;;;;;;;;;;5114348;28;20199;-60
2021/01/14 07:56:59;;;;;;;12.23;8.27;;;;;;;;;;5113780;28;20211;-61
2021/01/14 07:59:29;;;;;;;10.02;7.82;;;;;;;;;;5113961;28;20203;-60
2021/01/14 08:02:03;;;;;;;15.52;10.48;;;;;;;;;;5114149;28;20304;-60
2021/01/14 08:04:30;;;;;;;14.38;9.80;;;;;;;;;;5113881;28;20295;-60
2021/01/14 08:06:57;;;;;;;10.63;8.45;;;;;;;;;;5113590;28;20231;-61
2021/01/14 08:09:25;;;;;;;14.38;10.10;;;;;;;;;;5113977;28;20259;-60
2021/01/14 08:11:59;;;;;;;15.30;11.10;;;;;;;;;;5113634;28;20203;-61
2021/01/14 08:14:38;;;;;;;10.95;9.02;;;;;;;;;;5113033;28;20202;-59
2021/01/14 08:17:20;;;;;;;15.23;10.10;;;;;;;;;;5114945;28;20215;-60
2021/01/14 08:19:47;;;;;;;18.77;10.20;;;;;;;;;;5130962;28;20262;-60
2021/01/14 08:22:14;;;;;;;20.58;9.70;;;;;;;;;;5118735;28;20211;-61
2021/01/14 08:24:49;;;;;;;14.13;9.90;;;;;;;;;;5113824;28;20623;-61
2021/01/14 08:27:23;;;;;;;15.48;9.73;;;;;;;;;;5114059;28;20218;-60
2021/01/14 08:29:51;;;;;;;13.77;9.75;;;;;;;;;;5114182;28;20188;-60
2021/01/14 08:32:37;;;;;;;13.63;9.70;;;;;;;;;;5114205;28;20249;-61
2021/01/14 08:35:05;;;;;;;14.20;9.20;;;;;;;;;;5113583;28;20204;-60
2021/01/14 08:37:33;;;;;;;14.07;9.82;;;;;;;;;;5113513;28;20215;-60
2021/01/14 08:40:01;;;;;;;15.38;9.50;;;;;;;;;;5113320;28;20211;-61
2021/01/14 08:42:32;;;;;;;14.98;9.23;;;;;;;;;;5112935;28;20204;-60
2021/01/14 08:45:01;;;;;;;11.45;9.55;;;;;;;;;;5113421;28;20199;-63
2021/01/14 08:47:46;;;;;;;17.15;9.88;;;;;;;;;;5113130;28;20637;-64
2021/01/14 08:50:13;;;;;;;9.75;8.25;;;;;;;;;;5113789;28;20211;-62
2021/01/14 08:52:44;;;;;;;14.95;8.50;;;;;;;;;;5114236;28;20200;-63
2021/01/14 08:55:13;;;;;;;14.40;8.73;;;;;;;;;;5121116;28;20221;-63
2021/01/14 08:57:52;;;;;;;13.57;10.70;;;;;;;;;;5117471;28;20755;-62
2021/01/14 09:00:19;;;;;;;17.30;10.27;;;;;;;;;;5116647;28;20236;-62
2021/01/14 09:02:46;;;;;;;11.55;8.73;;;;;;;;;;5116596;28;20199;-62
2021/01/14 09:05:14;;;;;;;13.57;9.02;;;;;;;;;;5117023;28;20667;-62
2021/01/14 09:07:40;;;;;;;12.88;9.45;;;;;;;;;;5116524;28;20220;-62
2021/01/14 09:10:08;;;;;;;16.65;8.60;;;;;;;;;;5117306;28;20203;-61
2021/01/14 09:12:37;;;;;;;14.57;9.63;;;;;;;;;;5116552;28;20206;-63
2021/01/14 09:15:05;;;;;;;13.32;9.57;;;;;;;;;;5116833;28;20610;-61
2021/01/14 09:17:32;;;;;;;14.00;9.50;;;;;;;;;;5116528;28;20223;-62
2021/01/14 09:19:59;;;;;;;12.10;9.43;;;;;;;;;;5116376;28;20196;-62
2021/01/14 09:22:26;;;;;;;13.38;9.05;;;;;;;;;;5116424;28;20573;-62
2021/01/14 09:24:53;;;;;;;11.13;8.38;;;;;;;;;;5116953;28;20208;-63
2021/01/14 09:27:20;;;;;;;13.00;10.52;;;;;;;;;;5117018;28;20223;-62
2021/01/14 09:29:46;;;;;;;11.35;9.23;;;;;;;;;;5116914;28;20207;-63
2021/01/14 09:32:14;;;;;;;10.38;8.63;;;;;;;;;;5116781;28;20268;-63
2021/01/14 09:34:41;;;;;;;12.10;8.73;;;;;;;;;;5116836;28;20226;-62
2021/01/14 09:37:16;;;;;;;14.65;9.60;;;;;;;;;;5117024;28;20226;-62
2021/01/14 09:39:44;;;;;;;13.32;9.50;;;;;;;;;;5116303;28;20230;-62
2021/01/14 09:42:11;;;;;;;11.60;9.18;;;;;;;;;;5116630;28;20690;-60
2021/01/14 09:44:38;;;;;;;11.50;8.85;;;;;;;;;;5117367;28;20195;-61
2021/01/14 09:47:05;;;;;;;12.00;8.88;;;;;;;;;;5129789;28;20228;-62
2021/01/14 09:49:33;;;;;;;12.40;8.35;;;;;;;;;;5123409;28;20260;-61
2021/01/14 09:52:00;;;;;;;11.60;9.05;;;;;;;;;;5118734;28;20202;-60
2021/01/14 09:54:27;;;;;;;13.15;9.27;;;;;;;;;;5120552;28;20195;-61
2021/01/14 09:56:54;;;;;;;10.57;8.43;;;;;;;;;;5127766;28;20211;-62
2021/01/14 09:59:23;;;;;;;11.73;8.73;;;;;;;;;;5133256;28;20200;-63
2021/01/14 10:01:50;;;;;;;13.18;9.38;;;;;;;;;;5131828;28;20229;-61
2021/01/14 10:04:19;;;;;;;12.73;9.30;;;;;;;;;;5132629;28;20691;-61
2021/01/14 10:06:48;;;;;;;16.88;9.25;;;;;;;;;;5119265;28;20230;-60
2021/01/14 10:09:16;;;;;;;13.10;9.25;;;;;;;;;;5119816;28;20667;-60
2021/01/14 10:11:43;;;;;;;14.50;9.43;;;;;;;;;;5117821;28;20196;-61
2021/01/14 10:14:16;;;;;;;12.15;9.05;;;;;;;;;;5117298;28;20200;-61
2021/01/14 10:16:43;;;;;;;9.90;8.80;;;;;;;;;;5116679;28;20238;-61
2021/01/14 10:19:11;;;;;;;11.95;9.07;;;;;;;;;;5132090;22;20311;-56
2021/01/14 10:21:38;;;;;;;12.82;8.40;;;;;;;;;;5094659;28;20201;-57
2021/01/14 10:24:18;;;;;;;12.02;9.10;;;;;;;;;;5094335;28;20196;-55
2021/01/14 10:26:45;;;;;;;16.90;11.48;;;;;;;;;;5094484;28;20208;-56
2021/01/14 10:29:12;;;;;;;13.55;8.68;;;;;;;;;;5094157;28;20220;-56
2021/01/14 10:31:44;;;;;;;12.57;9.77;;;;;;;;;;5093797;28;20656;-56
2021/01/14 10:34:10;;;;;;;13.02;8.75;;;;;;;;;;5093888;28;20571;-58
2021/01/14 10:36:44;;;;;;;10.90;8.23;;;;;;;;;;5094860;28;20201;-55
2021/01/14 10:39:11;;;;;;;11.07;8.98;;;;;;;;;;5094055;28;20602;-57
2021/01/14 10:41:40;;;;;;;14.15;9.18;;;;;;;;;;5094256;28;20205;-57
2021/01/14 10:44:07;;;;;;;11.68;7.75;;;;;;;;;;5094065;28;20741;-56
2021/01/14 10:46:34;;;;;;;13.30;9.15;;;;;;;;;;5094457;28;20220;-57
2021/01/14 10:49:08;;;;;;;15.43;8.70;;;;;;;;;;5094343;28;20235;-58
2021/01/14 10:51:35;;;;;;;14.57;9.90;;;;;;;;;;5094223;28;20191;-56
2021/01/14 10:54:02;;;;;;;12.30;8.80;;;;;;;;;;5094277;28;20200;-57
2021/01/14 10:56:29;;;;;;;13.15;10.10;;;;;;;;;;5094432;28;20200;-57
2021/01/14 10:58:57;;;;;;;13.93;8.70;;;;;;;;;;5095288;28;20220;-58
2021/01/14 11:01:24;;;;;;;15.25;9.10;;;;;;;;;;5094127;28;20257;-56
2021/01/14 11:03:51;;;;;;;12.20;9.45;;;;;;;;;;5094260;28;20231;-58
2021/01/14 11:06:30;;;;;;;13.90;10.05;;;;;;;;;;5093584;28;20223;-57
2021/01/14 11:09:01;;;;;;;11.35;8.88;;;;;;;;;;5093240;28;20227;-57
2021/01/14 11:11:27;;;;;;;11.82;8.88;;;;;;;;;;5093505;28;20239;-57
2021/01/14 11:13:55;;;;;;;17.10;9.75;;;;;;;;;;5094276;28;20200;-57
2021/01/14 11:16:22;;;;;;;11.27;8.10;;;;;;;;;;5092968;28;20226;-55
2021/01/14 11:18:50;;;;;;;15.98;9.57;;;;;;;;;;5093968;28;20216;-56
2021/01/14 11:21:17;;;;;;;19.20;9.80;;;;;;;;;;5094224;28;20189;-56
2021/01/14 11:23:44;;;;;;;11.98;9.65;;;;;;;;;;5093818;28;20635;-56
2021/01/14 11:26:17;;;;;;;15.18;9.40;;;;;;;;;;5097064;28;20228;-57
2021/01/14 11:28:44;;;;;;;12.77;9.43;;;;;;;;;;5097224;28;20226;-56
2021/01/14 11:31:13;;;;;;;12.52;10.00;;;;;;;;;;5097039;28;20680;-55
2021/01/14 11:33:40;;;;;;;14.50;9.98;;;;;;;;;;5096155;28;20690;-56
2021/01/14 11:36:07;;;;;;;13.27;10.38;;;;;;;;;;5096082;28;20265;-57
2021/01/14 11:38:34;;;;;;;13.25;8.95;;;;;;;;;;5097064;28;20220;-57
2021/01/14 11:41:01;;;;;;;15.57;8.88;;;;;;;;;;5100177;28;20563;-57
2021/01/14 11:43:27;;;;;;;12.23;9.10;;;;;;;;;;5094415;28;20201;-57
2021/01/14 11:45:54;;;;;;;12.43;10.55;;;;;;;;;;5093012;28;20611;-57
2021/01/14 11:48:22;;;;;;;11.20;9.02;;;;;;;;;;5093056;28;20208;-57
2021/01/14 11:50:49;;;;;;;10.57;8.88;;;;;;;;;;5093200;28;20227;-58
2021/01/14 11:53:16;;;;;;;12.00;8.43;;;;;;;;;;5093779;28;20207;-59
2021/01/14 11:55:42;;;;;;;12.13;8.80;;;;;;;;;;5094409;28;20581;-58
2021/01/14 11:58:09;;;;;;;10.27;8.20;;;;;;;;;;5093519;28;20204;-57
2021/01/14 12:00:36;;;;;;;11.63;9.18;;;;;;;;;;5093739;28;20253;-57
2021/01/14 12:03:04;;;;;;;9.82;7.65;;;;;;;;;;5093741;28;20576;-57
2021/01/14 12:05:31;;;;;;;14.15;9.68;;;;;;;;;;5093394;28;20242;-56
2021/01/14 12:07:58;;;;;;;12.63;8.27;;;;;;;;;;5093025;28;20266;-57
2021/01/14 12:10:25;;;;;;;15.05;9.35;;;;;;;;;;5093622;28;20216;-56
2021/01/14 12:12:52;;;;;;;12.82;8.48;;;;;;;;;;5093766;28;20204;-55
2021/01/14 12:15:18;;;;;;;12.30;8.68;;;;;;;;;;5093390;28;20223;-56
2021/01/14 12:17:45;;;;;;;12.93;8.30;;;;;;;;;;5092929;28;20197;-56
2021/01/14 12:20:12;;;;;;;12.73;8.88;;;;;;;;;;5093465;28;20238;-56
2021/01/14 12:22:40;;;;;;;9.63;7.88;;;;;;;;;;5092911;28;20341;-56
2021/01/14 12:25:08;;;;;;;9.77;8.77;;;;;;;;;;5093370;28;20231;-56
2021/01/14 12:27:34;;;;;;;13.60;9.23;;;;;;;;;;5093399;28;20230;-56
2021/01/14 12:30:01;;;;;;;11.80;8.10;;;;;;;;;;5096595;28;20227;-55
2021/01/14 12:32:28;;;;;;;11.70;7.82;;;;;;;;;;5097179;28;20204;-56
2021/01/14 12:34:55;;;;;;;9.70;8.35;;;;;;;;;;5096879;28;20268;-56
2021/01/14 12:37:22;;;;;;;12.27;9.13;;;;;;;;;;5096825;28;20231;-56
2021/01/14 12:39:50;;;;;;;11.50;8.55;;;;;;;;;;5097091;28;20558;-55
2021/01/14 12:42:16;;;;;;;11.05;8.65;;;;;;;;;;5096675;28;20196;-56
2021/01/14 12:44:43;;;;;;;12.50;8.82;;;;;;;;;;5096489;28;20208;-56
2021/01/14 12:47:10;;;;;;;11.30;8.07;;;;;;;;;;5096066;28;20585;-56
2021/01/14 12:49:37;;;;;;;11.35;8.45;;;;;;;;;;5097805;28;20239;-58
2021/01/14 12:52:03;;;;;;;11.18;7.88;;;;;;;;;;5097383;28;20200;-58
2021/01/14 12:54:30;;;;;;;11.93;8.02;;;;;;;;;;5098779;28;20204;-56
2021/01/14 12:56:58;;;;;;;14.20;7.40;;;;;;;;;;5096728;28;20203;-58
2021/01/14 12:59:24;;;;;;;11.57;8.18;;;;;;;;;;5097613;28;20224;-57
2021/01/14 13:01:51;;;;;;;9.88;8.07;;;;;;;;;;5096844;28;20200;-56
2021/01/14 13:04:18;;;;;;;13.35;7.88;;;;;;;;;;5096423;28;20672;-56
2021/01/14 13:06:45;;;;;;;9.35;6.95;;;;;;;;;;5096937;28;20224;-57
2021/01/14 13:09:12;;;;;;;8.80;6.85;;;;;;;;;;5100440;28;20227;-57
2021/01/14 13:11:40;;;;;;;8.30;6.70;;;;;;;;;;5103896;28;20201;-55
2021/01/14 13:14:08;;;;;;;11.30;8.80;;;;;;;;;;5101961;28;20205;-57
2021/01/14 13:16:36;;;;;;;11.73;8.35;;;;;;;;;;5100833;28;20492;-56
2021/01/14 13:19:03;;;;;;;11.75;7.75;;;;;;;;;;5099932;28;20696;-56
2021/01/14 13:21:37;;;;;;;8.00;7.22;;;;;;;;;;5098879;28;20185;-56
2021/01/14 13:24:04;;;;;;;7.93;7.13;;;;;;;;;;5099118;28;20181;-56
2021/01/14 13:26:31;;;;;;;8.65;7.30;;;;;;;;;;5098938;28;20224;-56
2021/01/14 13:28:58;;;;;;;9.57;7.35;;;;;;;;;;5099068;28;20692;-56
2021/01/14 13:31:26;;;;;;;7.57;6.20;;;;;;;;;;5095167;28;20215;-56
2021/01/14 13:33:53;;;;;;;8.68;6.43;;;;;;;;;;5095435;28;20200;-56
2021/01/14 13:36:19;;;;;;;8.40;6.45;;;;;;;;;;5095715;28;20204;-56
2021/01/14 13:38:46;;;;;;;9.48;6.45;;;;;;;;;;5094898;28;20550;-57
2021/01/14 13:41:13;;;;;;;8.73;6.30;;;;;;;;;;5095178;28;20546;-55
2021/01/14 13:43:40;;;;;;;7.95;6.50;;;;;;;;;;5094956;28;20196;-55
2021/01/14 13:46:07;;;;;;;8.13;5.78;;;;;;;;;;5094898;28;20226;-56
2021/01/14 13:48:35;;;;;;;6.93;5.55;;;;;;;;;;5095087;28;20205;-57
2021/01/14 13:51:02;;;;;;;6.60;5.28;;;;;;;;;;5094894;28;20200;-56
2021/01/14 13:53:28;;;;;;;5.13;4.63;;;;;;;;;;5094941;28;20219;-56
2021/01/14 13:55:55;;;;;;;6.22;4.95;;;;;;;;;;5095063;28;20207;-56
2021/01/14 13:58:22;;;;;;;5.18;3.90;;;;;;;;;;5095337;28;20200;-56
2021/01/14 14:00:49;;;;;;;5.78;4.72;;;;;;;;;;5095206;28;20224;-57
2021/01/14 14:03:15;;;;;;;6.47;4.90;;;;;;;;;;5094671;28;20208;-55
2021/01/14 14:05:43;;;;;;;6.28;5.00;;;;;;;;;;5095342;28;20201;-57
2021/01/14 14:08:10;;;;;;;6.75;5.30;;;;;;;;;;5096189;28;20695;-59
2021/01/14 14:10:42;;;;;;;5.72;5.05;;;;;;;;;;5096633;28;20254;-55
2021/01/14 14:13:09;;;;;;;4.93;4.45;;;;;;;;;;5094932;28;20189;-56
2021/01/14 14:15:36;;;;;;;5.82;4.85;;;;;;;;;;5094839;28;20208;-55
2021/01/14 14:18:03;;;;;;;6.50;4.93;;;;;;;;;;5095117;28;20269;-56
2021/01/14 14:20:29;;;;;;;6.53;5.72;;;;;;;;;;5094330;28;20234;-56
2021/01/14 14:22:59;;;;;;;5.82;4.72;;;;;;;;;;5094602;28;20556;-56
2021/01/14 14:25:26;;;;;;;7.50;5.22;;;;;;;;;;5094818;28;20196;-56
2021/01/14 14:27:53;;;;;;;6.32;5.18;;;;;;;;;;5094661;28;20295;-56
2021/01/14 14:30:20;;;;;;;7.18;5.45;;;;;;;;;;5094292;28;20246;-56
2021/01/14 14:32:47;;;;;;;6.75;4.88;;;;;;;;;;5094939;28;20599;-56
2021/01/14 14:35:14;;;;;;;5.82;4.43;;;;;;;;;;5094622;28;20230;-56
2021/01/14 14:37:40;;;;;;;5.57;4.30;;;;;;;;;;5094097;28;20196;-53
2021/01/14 14:40:09;;;;;;;5.43;4.32;;;;;;;;;;5094501;28;20634;-56
2021/01/14 14:42:36;;;;;;;6.20;5.18;;;;;;;;;;5094343;28;20581;-56
2021/01/14 14:45:02;;;;;;;6.93;5.38;;;;;;;;;;5093544;28;20203;-56
2021/01/14 14:47:29;;;;;;;9.25;5.00;;;;;;;;;;5093763;28;20212;-55
2021/01/14 14:49:56;;;;;;;8.70;4.28;;;;;;;;;;5093594;28;20630;-55